Les Escoumins, Canada
Current Conditions -  °F | °C
As of 6:00 AM on Friday 24 Oct 2014 (Local Time) from CYYY Reporting Station
Few Clouds Few Clouds  
Wind Chill: 28°   Ceiling: Unl
Heat Index: 34°   Visibility: 15mi
Dew Point: 34°   Wind: 7mph
Humidity: 100%   Direction: 70°ENE
Pressure: 29.98"   Gusts: NA
Location:  48.35°N, 69.42°W
Report Text: CYYY 241000Z 07006KT 15SM FEW003 FEW012 01/01 A2998 RMK SF1SC1 SLP154
Loading
Personal Weather Stations






























Interactive Weather Map
Tropical Storm Tracking
New forecast layout! Learn more

10-Day Weather Forecast

Advertisements
Track Severe Weather on mobile